Monday, October 20, 2014
11:27 UTC
  |  Log In   |  Register Free
Airport Search:

Skyway Estates Airport
(60G)

Skyway Estates Airport Diagram
No Airport Diagram Available

FAA data valid effective September 18, 2014 - November 13, 2014 (unless otherwise noted).

 
 
 
 
 
 
 
 
 
 
 
 
 
 

Current Aviation Weather for Skyway Estates Airport (60G)

METAR data is unavailable for 60G. The nearest METAR location is at KFPK (7.1 nm SW from 60G).

The most recent METAR observation for KFPK was updated at: 1111
METAR Summary (Translated METAR)
KFPK
201055Z AUTO 19005KT 10SM CLR 08/07 A2981 RMK AO2 T00810065
(7.1 nm SW from 60G)
KTEW
201052Z AUTO 19003KT 10SM OVC050 08/07 A2983 RMK AO2 T00810065
(10.1 nm SE from 60G)
TAF Summary (Translated TAF)
KLAN
(15.8 nm NE from KFPK)
200540Z 2006/2106 20008KT P6SM VCSH BKN070 FM201600 24010KT P6SM VCSH OVC025 FM202100 29008KT P6SM OVC025
  Airport Weather Conditions for 60G

Current weather conditions are
not available for 60G


The nearest NOAA weather station
is at FPK, (7.1 nm SW from 60G)
  
 Current Weather at FPK
47° F
Fair
South winds at 5.8 mph
FPK NOAA Radar

Pressure: 29.81 in
Humidity: 90%
Wind: South at 5.8 MPH (5 KT)
Dew Point: 43.7°F
Visibility: 10.00 mi


Airport Weather Forecast for 60G

Translated METAR and TAF for KFPK
Translated METAR for KFPK (1122 UTC 20 October 2014)
found at http://aviationweather.gov/adds/metars/
 
METAR text: KFPK 201114Z AUTO 19004KT 7SM SCT065 SCT100 08/06 A2981 RMK AO2 T00780063
Conditions at: KFPK (CHARLOTTE , MI, US) observed 1114 UTC 20 October 2014
Temperature: 7.8°C (46°F)
Dewpoint: 6.3°C (43°F) [RH = 90%]
Pressure (altimeter): 29.81 inches Hg (1009.6 mb)
Winds: from the S (190 degrees) at 5 MPH (4 knots; 2.1 m/s)
Visibility: 7 miles (11 km)
Ceiling: at least 12,000 feet AGL
Clouds: scattered clouds at 6500 feet AGL
scattered clouds at 10000 feet AGL
Weather: automated observation with no human augmentation;
there may or may not be significant weather present at this time
Translated TAF for KFPK

There is no translated TAF available for this airport

Find All Airport Services Find A Hotel Find A Rental Car Find A Golf Course Find A Restaurant $100 Hamburger



FBO's on the Field
FBO Company Facility Photos Services Transportation Aviation Fuel Prices: Prices include tax
Catering Weather Repair Courtesy Rental Type 100LL JetA JetA+ MOGAS 8087
 
Add another FBO Facility Photos Catering Weather Repair Courtesy Rental Type 100LL JetA JetA+ MOGAS 8087
Services Transportation Aviation Fuel Prices: Prices include tax
There are no FBO's currently reporting fuel at 60G. List your FBO now


model-print
model-print
model-print
model-print